createdAt,value
2023-03-14T00:00:22.744Z,71.50
2023-03-14T00:01:22.746Z,72.34
2023-03-14T00:02:22.744Z,72.44
2023-03-14T00:03:22.709Z,72.00
2023-03-14T00:04:22.697Z,71.05
2023-03-14T00:05:22.686Z,71.63
2023-03-14T00:06:22.679Z,71.90
2023-03-14T00:07:22.662Z,71.29
2023-03-14T00:08:22.662Z,71.05
2023-03-14T00:09:22.641Z,71.19
2023-03-14T00:10:22.637Z,71.50
2023-03-14T00:11:22.628Z,71.19
2023-03-14T00:12:22.611Z,71.42
2023-03-14T00:13:22.600Z,71.83
2023-03-14T00:14:22.589Z,71.73
2023-03-14T00:15:22.578Z,71.29
2023-03-14T00:16:22.669Z,71.33
2023-03-14T00:17:22.650Z,70.98
2023-03-14T00:18:22.544Z,71.73
2023-03-14T00:19:22.540Z,71.39
2023-03-14T00:20:22.523Z,71.22
2023-03-14T00:21:22.509Z,71.94
2023-03-14T00:22:22.502Z,71.33
2023-03-14T00:23:22.489Z,72.17
2023-03-14T00:24:22.484Z,72.07
2023-03-14T00:25:22.498Z,71.42
2023-03-14T00:26:22.461Z,70.92
2023-03-14T00:27:22.445Z,71.63
2023-03-14T00:28:22.437Z,71.56
2023-03-14T00:29:22.436Z,71.53
2023-03-14T00:30:22.411Z,72.07
2023-03-14T00:31:22.439Z,71.53
2023-03-14T00:32:22.428Z,71.02
2023-03-14T00:33:22.403Z,71.66
2023-03-14T00:34:22.367Z,71.12
2023-03-14T00:35:22.356Z,71.53
2023-03-14T00:37:22.333Z,71.42
2023-03-14T00:38:22.324Z,71.22
2023-03-14T00:39:22.313Z,71.77
2023-03-14T00:40:22.303Z,72.58
2023-03-14T00:41:22.287Z,71.63
2023-03-14T00:42:22.292Z,71.97
2023-03-14T00:43:22.274Z,71.42
2023-03-14T00:44:22.264Z,71.73
2023-03-14T00:45:22.252Z,70.48
2023-03-14T00:46:22.329Z,70.48
2023-03-14T00:49:22.226Z,71.53
2023-03-14T00:50:22.191Z,71.12
2023-03-14T00:51:22.179Z,71.77
2023-03-14T00:52:22.170Z,71.42
2023-03-14T00:53:22.162Z,71.09
2023-03-14T00:54:22.149Z,71.12
2023-03-14T00:55:22.135Z,71.60
2023-03-14T00:56:22.125Z,71.33
2023-03-14T00:57:22.113Z,71.42
2023-03-14T00:58:22.105Z,71.02
2023-03-14T00:59:22.092Z,72.24
2023-03-14T01:00:22.091Z,71.29
2023-03-14T01:01:22.171Z,72.31
2023-03-14T01:02:22.060Z,73.02
2023-03-14T01:03:22.048Z,74.17
2023-03-14T01:04:22.041Z,76.30
2023-03-14T01:05:22.052Z,76.98
2023-03-14T01:06:22.027Z,80.07
2023-03-14T01:07:22.011Z,80.15
2023-03-14T01:08:22.010Z,82.18
2023-03-14T01:09:21.997Z,81.82
2023-03-14T01:10:21.980Z,83.69
2023-03-14T01:11:21.973Z,82.70
2023-03-14T01:12:21.963Z,83.75
2023-03-14T01:13:21.943Z,82.94
2023-03-14T01:14:21.942Z,82.57
2023-03-14T01:15:21.924Z,83.32
2023-03-14T01:16:21.975Z,84.50
2023-03-14T01:17:21.900Z,83.55
2023-03-14T01:18:21.907Z,83.08
2023-03-14T01:19:21.880Z,83.28
2023-03-14T01:20:21.871Z,84.03
2023-03-14T01:21:21.880Z,83.42
2023-03-14T01:24:21.827Z,83.32
2023-03-14T01:25:21.814Z,83.12
2023-03-14T01:26:21.810Z,84.34
2023-03-14T01:27:21.792Z,83.42
2023-03-14T01:28:21.788Z,83.73
2023-03-14T01:29:21.774Z,82.95
2023-03-14T01:30:21.768Z,83.94
2023-03-14T01:31:21.812Z,83.83
2023-03-14T01:34:21.716Z,83.28
2023-03-14T01:35:21.709Z,82.16
2023-03-14T01:36:21.719Z,83.12
2023-03-14T01:37:21.711Z,83.26
2023-03-14T01:38:21.673Z,82.95
2023-03-14T01:39:21.667Z,83.26
2023-03-14T01:47:21.585Z,82.37
2023-03-14T01:48:21.568Z,80.94
2023-03-14T01:49:21.552Z,81.75
2023-03-14T01:50:21.543Z,81.59
2023-03-14T01:51:21.530Z,81.59
2023-03-14T01:52:21.525Z,82.20
2023-03-14T01:53:21.528Z,81.55
2023-03-14T01:57:21.464Z,81.39
2023-03-14T01:58:21.456Z,82.55
2023-03-14T01:59:21.510Z,82.00
2023-03-14T02:00:21.434Z,81.69
2023-03-14T02:01:21.468Z,81.39
2023-03-14T02:04:21.401Z,81.79
2023-03-14T02:05:21.382Z,82.00
2023-03-14T02:06:21.370Z,81.63
2023-03-14T02:07:21.356Z,82.34
2023-03-14T02:08:21.360Z,82.85
2023-03-14T02:09:21.356Z,82.65
2023-03-14T02:10:21.326Z,81.73
2023-03-14T02:12:21.310Z,82.30
2023-03-14T02:13:21.286Z,81.59
2023-03-14T02:16:21.289Z,79.92
2023-03-14T02:17:21.241Z,81.22
2023-03-14T02:18:21.260Z,82.00
2023-03-14T02:19:21.220Z,81.14
2023-03-14T02:20:21.207Z,81.18
2023-03-14T02:21:21.199Z,81.28
2023-03-14T02:22:21.188Z,80.16
2023-03-14T02:23:21.173Z,81.04
2023-03-14T02:24:21.163Z,80.37
2023-03-14T02:25:21.171Z,82.00
2023-03-14T02:26:21.140Z,80.23
2023-03-14T02:27:21.134Z,80.87
2023-03-14T02:28:21.121Z,80.57
2023-03-14T02:29:21.105Z,80.98
2023-03-14T02:30:21.095Z,80.57
2023-03-14T02:31:21.130Z,79.96
2023-03-14T02:35:21.041Z,79.75
2023-03-14T02:36:21.030Z,79.65
2023-03-14T02:37:21.023Z,79.41
2023-03-14T02:38:21.025Z,79.55
2023-03-14T02:39:20.999Z,80.39
2023-03-14T02:43:20.972Z,80.23
2023-03-14T02:44:20.952Z,79.21
2023-03-14T02:45:20.954Z,78.69
2023-03-14T02:46:21.007Z,79.68
2023-03-14T02:47:20.911Z,78.49
2023-03-14T02:48:20.902Z,79.00
2023-03-14T02:49:20.884Z,78.15
2023-03-14T02:50:20.885Z,78.29
2023-03-14T02:52:20.852Z,79.21
2023-03-14T02:53:20.840Z,78.90
2023-03-14T02:54:20.830Z,78.90
2023-03-14T02:55:20.819Z,79.35
2023-03-14T02:56:20.813Z,79.04
2023-03-14T02:57:20.823Z,79.82
2023-03-14T02:58:20.791Z,79.17
2023-03-14T02:59:20.773Z,78.96
2023-03-14T03:00:20.771Z,78.86
2023-03-14T03:01:20.840Z,79.35
2023-03-14T03:02:20.748Z,79.75
2023-03-14T03:03:20.770Z,79.41
2023-03-14T03:04:20.720Z,80.16
2023-03-14T03:05:20.714Z,78.90
2023-03-14T03:06:20.699Z,79.10
2023-03-14T03:07:20.686Z,79.10
2023-03-14T03:08:20.677Z,79.51
2023-03-14T03:09:20.664Z,79.75
2023-03-14T03:10:20.653Z,79.10
2023-03-14T03:11:20.641Z,79.96
2023-03-14T03:12:20.635Z,79.92
2023-03-14T03:13:20.641Z,79.65
2023-03-14T03:14:20.609Z,79.96
2023-03-14T03:15:20.596Z,79.21
2023-03-14T03:16:20.609Z,79.37
2023-03-14T03:17:20.580Z,78.90
2023-03-14T03:18:20.570Z,79.55
2023-03-14T03:19:20.555Z,80.06
2023-03-14T03:20:20.550Z,79.55
2023-03-14T03:21:20.533Z,80.30
2023-03-14T03:22:20.526Z,79.85
2023-03-14T03:23:20.516Z,79.96
2023-03-14T03:24:20.505Z,79.35
2023-03-14T03:25:20.493Z,80.26
2023-03-14T03:26:20.488Z,79.75
2023-03-14T03:27:20.473Z,79.85
2023-03-14T03:28:20.476Z,79.44
2023-03-14T03:29:20.526Z,78.69
2023-03-14T03:30:20.438Z,79.85
2023-03-14T03:31:20.593Z,78.60
2023-03-14T03:32:20.494Z,78.15
2023-03-14T03:33:20.408Z,78.25
2023-03-14T03:34:20.397Z,77.94
2023-03-14T03:35:20.388Z,77.78
2023-03-14T03:36:20.378Z,78.08
2023-03-14T03:38:20.353Z,77.78
2023-03-14T03:39:20.344Z,77.33
2023-03-14T03:40:20.332Z,77.74
2023-03-14T03:41:20.325Z,77.54
2023-03-14T03:42:20.317Z,76.69
2023-03-14T03:43:20.301Z,76.79
2023-03-14T03:44:20.290Z,77.85
2023-03-14T03:45:20.304Z,77.81
2023-03-14T03:46:20.294Z,76.31
2023-03-14T03:47:20.278Z,77.44
2023-03-14T03:48:20.256Z,77.67
2023-03-14T03:49:20.241Z,77.78
2023-03-14T03:50:20.224Z,78.53
2023-03-14T03:51:20.217Z,78.43
2023-03-14T03:54:20.187Z,77.54
2023-03-14T03:55:20.181Z,77.88
2023-03-14T03:56:20.167Z,77.44
2023-03-14T03:57:20.151Z,76.42
2023-03-14T03:58:20.138Z,77.47
2023-03-14T03:59:20.165Z,77.78
2023-03-14T04:00:20.115Z,76.79
2023-03-14T04:03:20.088Z,77.78
2023-03-14T04:04:20.072Z,78.49
2023-03-14T04:05:20.059Z,77.44
2023-03-14T04:07:20.046Z,77.88
2023-03-14T04:08:20.033Z,78.08
2023-03-14T04:09:20.017Z,78.05
2023-03-14T04:10:20.003Z,77.54
2023-03-14T04:11:19.994Z,79.44
2023-03-14T04:12:19.985Z,80.06
2023-03-14T04:13:19.980Z,80.26
2023-03-14T04:14:19.981Z,79.31
2023-03-14T04:15:19.951Z,80.02
2023-03-14T04:16:20.071Z,79.44
2023-03-14T04:17:21.623Z,80.87
2023-03-14T04:18:19.917Z,79.85
2023-03-14T04:19:19.906Z,80.37
2023-03-14T04:20:19.901Z,80.87
2023-03-14T04:21:19.888Z,80.37
2023-03-14T04:22:19.879Z,80.33
2023-03-14T04:23:19.864Z,80.12
2023-03-14T04:24:19.852Z,80.87
2023-03-14T04:25:19.876Z,80.06
2023-03-14T04:26:19.829Z,81.28
2023-03-14T04:27:19.824Z,81.28
2023-03-14T04:30:19.785Z,80.43
2023-03-14T04:31:19.864Z,79.47
2023-03-14T04:32:19.831Z,78.90
2023-03-14T04:35:19.737Z,79.75
2023-03-14T04:36:19.717Z,79.62
2023-03-14T04:37:19.706Z,79.98
2023-03-14T04:38:19.695Z,79.62
2023-03-14T04:39:19.686Z,80.37
2023-03-14T04:40:19.674Z,82.17
2023-03-14T04:41:19.663Z,82.55
2023-03-14T04:42:19.653Z,82.89
2023-03-14T04:43:19.647Z,84.16
2023-03-14T04:44:19.631Z,84.46
2023-03-14T04:45:19.619Z,85.24
2023-03-14T04:46:19.700Z,84.77
2023-03-14T04:47:19.601Z,84.91
2023-03-14T04:48:19.585Z,84.91
2023-03-14T04:49:19.637Z,86.19
2023-03-14T04:50:19.565Z,84.81
2023-03-14T04:51:19.553Z,85.72
2023-03-14T04:52:19.541Z,86.66
2023-03-14T04:53:19.535Z,83.81
2023-03-14T04:54:19.522Z,84.81
2023-03-14T04:55:19.510Z,85.38
2023-03-14T04:56:19.499Z,84.05
2023-03-14T04:57:19.495Z,84.57
2023-03-14T04:58:19.476Z,84.87
2023-03-14T04:59:19.468Z,84.66
2023-03-14T05:00:19.466Z,84.32
2023-03-14T05:01:19.447Z,84.71
2023-03-14T05:02:19.433Z,85.01
2023-03-14T05:03:19.478Z,84.60
2023-03-14T05:04:19.408Z,85.32
2023-03-14T05:05:19.420Z,85.83
2023-03-14T05:06:19.399Z,85.66
2023-03-14T05:07:19.378Z,86.48
2023-03-14T05:09:19.361Z,86.13
2023-03-14T05:11:19.347Z,85.58
2023-03-14T05:12:19.323Z,85.42
2023-03-14T05:13:19.310Z,86.38
2023-03-14T05:17:19.265Z,85.87
2023-03-14T05:18:19.253Z,87.24
2023-03-14T05:21:19.241Z,87.20
2023-03-14T05:24:19.193Z,86.28
2023-03-14T05:25:19.182Z,86.83
2023-03-14T05:26:19.168Z,88.18
2023-03-14T05:27:19.157Z,86.85
2023-03-14T05:28:19.143Z,87.06
2023-03-14T05:29:19.135Z,86.07
2023-03-14T05:30:19.124Z,87.71
2023-03-14T05:31:19.181Z,87.92
2023-03-14T05:32:19.164Z,88.06
2023-03-14T05:34:19.091Z,87.60
2023-03-14T05:35:19.077Z,87.65
2023-03-14T05:36:19.057Z,88.57
2023-03-14T05:37:20.219Z,87.95
2023-03-14T05:38:19.040Z,87.71
2023-03-14T05:39:19.053Z,86.79
2023-03-14T05:40:19.021Z,88.01
2023-03-14T05:41:19.007Z,87.98
2023-03-14T05:42:19.117Z,86.95
2023-03-14T05:43:18.994Z,87.57
2023-03-14T05:44:18.975Z,87.16
2023-03-14T05:45:18.971Z,86.75
2023-03-14T05:46:19.022Z,87.10
2023-03-14T05:47:18.943Z,88.18
2023-03-14T05:48:18.940Z,87.53
2023-03-14T05:49:18.924Z,85.99
2023-03-14T05:50:18.914Z,86.40
2023-03-14T05:51:18.909Z,86.44
2023-03-14T05:53:19.034Z,87.67
2023-03-14T05:54:18.865Z,87.60
2023-03-14T05:55:18.857Z,87.36
2023-03-14T05:56:18.847Z,87.32
2023-03-14T05:58:18.821Z,87.06
2023-03-14T05:59:18.826Z,86.69
2023-03-14T06:00:18.825Z,88.22
2023-03-14T06:02:18.817Z,88.94
2023-03-14T06:03:18.809Z,88.42
2023-03-14T06:04:18.758Z,88.33
2023-03-14T06:05:18.754Z,87.87
2023-03-14T06:06:18.738Z,88.22
2023-03-14T06:07:18.732Z,89.08
2023-03-14T06:11:18.680Z,89.49
2023-03-14T06:12:18.677Z,90.31
2023-03-14T06:13:18.659Z,90.27
2023-03-14T06:14:18.650Z,89.69
2023-03-14T06:16:18.674Z,90.10
2023-03-14T06:18:18.605Z,89.45
2023-03-14T06:19:18.593Z,89.81
2023-03-14T06:24:18.566Z,88.44
2023-03-14T06:25:18.556Z,87.77
2023-03-14T06:26:18.526Z,89.45
2023-03-14T06:27:18.516Z,89.96
2023-03-14T06:28:18.496Z,89.75
2023-03-14T06:29:18.487Z,90.16
2023-03-14T06:30:18.480Z,89.14
2023-03-14T06:31:18.540Z,89.16
2023-03-14T06:32:18.476Z,87.83
2023-03-14T06:33:18.451Z,89.00
2023-03-14T06:34:18.431Z,88.28
2023-03-14T06:35:18.421Z,89.71
2023-03-14T06:36:18.411Z,89.04
2023-03-14T06:37:20.655Z,89.81
2023-03-14T06:38:18.398Z,89.55
2023-03-14T06:39:18.379Z,90.10
2023-03-14T06:40:18.368Z,90.06
2023-03-14T06:41:18.382Z,90.22
2023-03-14T06:42:18.353Z,89.14
2023-03-14T06:43:18.336Z,90.47
2023-03-14T06:44:18.325Z,89.51
2023-03-14T06:45:18.317Z,89.51
2023-03-14T06:51:18.250Z,88.48
2023-03-14T06:52:18.240Z,89.36
2023-03-14T06:53:18.230Z,89.36
2023-03-14T06:54:18.216Z,89.36
2023-03-14T06:55:19.606Z,89.06
2023-03-14T06:58:18.172Z,87.63
2023-03-14T06:59:18.165Z,88.34
2023-03-14T07:01:18.169Z,88.79
2023-03-14T07:02:18.129Z,90.69
2023-03-14T07:03:18.124Z,89.16
2023-03-14T07:04:18.160Z,89.53
2023-03-14T07:05:18.097Z,88.79
2023-03-14T07:06:18.089Z,89.61
2023-03-14T07:07:18.077Z,90.08
2023-03-14T07:08:18.065Z,89.26
2023-03-14T07:09:18.083Z,89.63
2023-03-14T07:10:18.047Z,88.71
2023-03-14T07:11:18.037Z,87.93
2023-03-14T07:12:18.020Z,89.06
2023-03-14T07:13:18.048Z,90.28
2023-03-14T07:14:19.298Z,89.57
2023-03-14T07:15:19.494Z,89.01
2023-03-14T07:16:18.049Z,88.95
2023-03-14T07:17:17.967Z,88.81
2023-03-14T07:18:17.955Z,89.12
2023-03-14T07:19:17.946Z,88.81
2023-03-14T07:21:17.939Z,89.32
2023-03-14T07:22:17.912Z,88.22
2023-03-14T07:25:17.879Z,87.71
2023-03-14T07:27:17.858Z,88.36
2023-03-14T07:28:17.846Z,87.95
2023-03-14T07:29:17.890Z,89.01
2023-03-14T07:30:17.825Z,89.57
2023-03-14T07:31:17.849Z,89.32
2023-03-14T07:33:17.794Z,89.22
2023-03-14T07:34:17.785Z,89.01
2023-03-14T07:35:17.771Z,90.14
2023-03-14T07:36:17.759Z,89.28
2023-03-14T07:37:17.751Z,88.56
2023-03-14T07:38:17.738Z,88.67
2023-03-14T07:39:17.729Z,88.06
2023-03-14T07:40:17.721Z,89.28
2023-03-14T07:42:17.696Z,89.99
2023-03-14T07:43:17.683Z,88.87
2023-03-14T07:44:17.674Z,89.03
2023-03-14T07:45:18.253Z,87.95
2023-03-14T07:46:17.704Z,88.06
2023-03-14T07:47:17.649Z,89.38
2023-03-14T07:48:17.632Z,88.93
2023-03-14T07:49:17.630Z,88.32
2023-03-14T07:50:17.609Z,87.26
2023-03-14T07:51:17.595Z,87.20
2023-03-14T07:52:17.589Z,88.42
2023-03-14T07:53:17.579Z,86.85
2023-03-14T07:56:17.543Z,86.99
2023-03-14T07:57:17.535Z,86.75
2023-03-14T07:58:17.523Z,86.69
2023-03-14T07:59:17.510Z,87.81
2023-03-14T08:00:17.498Z,86.95
2023-03-14T08:01:17.518Z,87.60
2023-03-14T08:02:17.515Z,87.10
2023-03-14T08:03:17.481Z,87.77
2023-03-14T08:04:17.520Z,87.56
2023-03-14T08:05:17.444Z,86.71
2023-03-14T08:06:17.440Z,86.10
2023-03-14T08:07:17.434Z,86.54
2023-03-14T08:08:17.412Z,86.95
2023-03-14T08:09:17.399Z,87.50
2023-03-14T08:10:17.389Z,87.71
2023-03-14T08:11:17.377Z,87.81
2023-03-14T08:12:17.428Z,88.18
2023-03-14T08:13:17.356Z,87.93
2023-03-14T08:14:17.351Z,86.20
2023-03-14T08:15:17.333Z,87.77
2023-03-14T08:16:17.398Z,87.22
2023-03-14T08:17:17.348Z,87.42
2023-03-14T08:18:17.302Z,85.99
2023-03-14T08:20:17.282Z,87.46
2023-03-14T08:21:17.289Z,87.16
2023-03-14T08:22:19.932Z,86.95
2023-03-14T08:23:17.247Z,86.75
2023-03-14T08:24:17.267Z,88.12
2023-03-14T08:25:17.269Z,88.22
2023-03-14T08:26:17.216Z,88.18
2023-03-14T08:28:17.194Z,86.71
2023-03-14T08:29:17.181Z,86.10
2023-03-14T08:30:17.365Z,85.90
2023-03-14T08:31:17.268Z,86.10
2023-03-14T08:32:17.152Z,86.51
2023-03-14T08:33:17.183Z,86.81
2023-03-14T08:34:17.127Z,86.37
2023-03-14T08:35:17.120Z,85.81
2023-03-14T08:36:17.121Z,85.30
2023-03-14T08:40:17.064Z,85.36
2023-03-14T08:41:17.071Z,85.20
2023-03-14T08:42:17.039Z,85.30
2023-03-14T08:43:17.026Z,85.41
2023-03-14T08:44:20.112Z,85.10
2023-03-14T08:45:17.004Z,85.81
2023-03-14T08:46:17.141Z,85.61
2023-03-14T08:47:16.992Z,84.49
2023-03-14T08:48:16.972Z,85.00
2023-03-14T08:49:17.056Z,84.53
2023-03-14T08:50:17.001Z,86.16
2023-03-14T08:51:16.951Z,85.61
2023-03-14T08:52:16.950Z,85.61
2023-03-14T08:53:16.919Z,86.26
2023-03-14T08:54:16.906Z,85.65
2023-03-14T08:55:16.893Z,85.99
2023-03-14T08:56:16.884Z,87.12
2023-03-14T08:57:16.877Z,86.81
2023-03-14T08:58:16.861Z,87.65
2023-03-14T08:59:16.851Z,86.26
2023-03-14T09:00:16.840Z,86.65
2023-03-14T09:01:16.856Z,87.67
2023-03-14T09:04:16.831Z,87.97
2023-03-14T09:05:16.809Z,87.62
2023-03-14T09:06:16.782Z,88.00
2023-03-14T09:07:16.761Z,87.07
2023-03-14T09:08:16.758Z,86.22
2023-03-14T09:09:16.740Z,86.26
2023-03-14T09:10:16.730Z,87.48
2023-03-14T09:11:16.723Z,86.57
2023-03-14T09:12:16.708Z,86.77
2023-03-14T09:13:16.703Z,85.81
2023-03-14T09:14:16.688Z,86.22
2023-03-14T09:15:16.701Z,85.96
2023-03-14T09:16:16.722Z,86.32
2023-03-14T09:17:16.656Z,85.41
2023-03-14T09:19:16.632Z,85.85
2023-03-14T09:21:16.660Z,85.85
2023-03-14T09:22:16.603Z,86.26
2023-03-14T09:23:16.589Z,87.12
2023-03-14T09:24:16.582Z,88.14
2023-03-14T09:25:16.567Z,88.85
2023-03-14T09:26:16.558Z,88.53
2023-03-14T09:27:16.546Z,89.18
2023-03-14T09:28:16.546Z,88.50
2023-03-14T09:29:16.520Z,88.54
2023-03-14T09:30:16.520Z,88.59
2023-03-14T09:31:16.661Z,88.28
2023-03-14T09:32:16.493Z,87.30
2023-03-14T09:33:16.480Z,87.44
2023-03-14T09:34:16.470Z,87.79
2023-03-14T09:35:16.462Z,88.51
2023-03-14T09:36:16.450Z,88.87
2023-03-14T09:37:16.455Z,88.67
2023-03-14T09:38:16.430Z,87.54
2023-03-14T09:39:16.414Z,87.13
2023-03-14T09:40:16.406Z,86.69
2023-03-14T09:41:16.405Z,85.66
2023-03-14T09:42:16.385Z,85.77
2023-03-14T09:43:16.374Z,85.09
2023-03-14T09:44:16.361Z,85.60
2023-03-14T09:45:16.350Z,85.50
2023-03-14T09:46:16.384Z,86.12
2023-03-14T09:47:16.326Z,85.03
2023-03-14T09:48:16.320Z,85.85
2023-03-14T09:49:16.312Z,85.47
2023-03-14T09:50:16.293Z,86.93
2023-03-14T09:51:16.278Z,86.38
2023-03-14T09:54:16.247Z,85.54
2023-03-14T09:55:16.242Z,86.21
2023-03-14T09:56:16.224Z,85.50
2023-03-14T09:57:16.246Z,85.13
2023-03-14T09:58:16.208Z,84.96
2023-03-14T10:00:16.178Z,85.68
2023-03-14T10:01:16.191Z,85.80
2023-03-14T10:02:16.165Z,84.27
2023-03-14T10:04:16.238Z,84.47
2023-03-14T10:05:16.122Z,84.06
2023-03-14T10:06:16.123Z,84.31
2023-03-14T10:07:16.099Z,85.33
2023-03-14T10:08:16.124Z,85.03
2023-03-14T10:09:16.100Z,84.72
2023-03-14T10:10:16.072Z,85.23
2023-03-14T10:11:16.062Z,85.99
2023-03-14T10:12:16.091Z,86.09
2023-03-14T10:13:16.031Z,86.46
2023-03-14T10:14:16.026Z,86.15
2023-03-14T10:19:15.971Z,86.34
2023-03-14T10:20:15.958Z,86.17
2023-03-14T10:21:15.945Z,86.85
2023-03-14T10:22:15.941Z,86.17
2023-03-14T10:24:15.915Z,86.38
2023-03-14T10:25:15.928Z,85.52
2023-03-14T10:26:15.894Z,86.13
2023-03-14T10:27:15.924Z,85.31
2023-03-14T10:28:15.872Z,85.87
2023-03-14T10:29:15.860Z,86.03
2023-03-14T10:30:15.850Z,85.52
2023-03-14T10:31:15.992Z,85.46
2023-03-14T10:32:15.828Z,85.90
2023-03-14T10:33:15.820Z,85.46
2023-03-14T10:34:15.806Z,85.04
2023-03-14T10:35:15.806Z,84.90
2023-03-14T10:36:16.962Z,83.92
2023-03-14T10:37:15.772Z,84.27
2023-03-14T10:38:15.772Z,84.88
2023-03-14T10:39:15.753Z,84.10
2023-03-14T10:40:15.742Z,84.30
2023-03-14T10:44:15.698Z,83.07
2023-03-14T10:45:15.696Z,84.00
2023-03-14T10:46:15.787Z,82.76
2023-03-14T10:47:15.669Z,82.15
2023-03-14T10:48:15.654Z,82.15
2023-03-14T10:50:15.633Z,81.71
2023-03-14T10:51:15.651Z,82.02
2023-03-14T10:52:15.612Z,82.12
2023-03-14T10:53:15.597Z,81.14
2023-03-14T10:54:15.588Z,81.65
2023-03-14T10:55:15.576Z,81.86
2023-03-14T10:56:15.571Z,81.30
2023-03-14T10:57:15.574Z,82.23
2023-03-14T10:58:15.546Z,81.06
2023-03-14T10:59:15.540Z,81.57
2023-03-14T11:00:15.524Z,80.34
2023-03-14T11:01:15.580Z,80.68
2023-03-14T11:02:15.500Z,79.07
2023-03-14T11:03:15.493Z,79.99
2023-03-14T11:04:15.552Z,79.87
2023-03-14T11:05:15.466Z,79.41
2023-03-14T11:06:15.457Z,79.15
2023-03-14T11:07:15.456Z,78.39
2023-03-14T11:08:15.436Z,77.26
2023-03-14T11:09:15.424Z,78.08
2023-03-14T11:10:15.417Z,77.36
2023-03-14T11:11:15.403Z,76.71
2023-03-14T11:12:15.394Z,76.17
2023-03-14T11:13:15.406Z,76.51
2023-03-14T11:14:15.370Z,77.32
2023-03-14T11:15:15.370Z,75.07
2023-03-14T11:16:15.427Z,74.66
2023-03-14T11:17:15.339Z,74.04
2023-03-14T11:18:15.326Z,75.17
2023-03-14T11:19:15.359Z,74.42
2023-03-14T11:20:15.351Z,76.06
2023-03-14T11:21:15.297Z,74.70
2023-03-14T11:22:15.285Z,74.49
2023-03-14T11:23:15.271Z,73.60
2023-03-14T11:24:15.262Z,72.44
2023-03-14T11:25:15.251Z,73.12
2023-03-14T11:26:15.260Z,72.95
2023-03-14T11:27:15.231Z,72.65
2023-03-14T11:28:15.219Z,73.74
2023-03-14T11:29:15.225Z,72.71
2023-03-14T11:30:15.234Z,73.43
2023-03-14T11:31:15.210Z,73.43
2023-03-14T11:32:15.187Z,75.04
2023-03-14T11:33:15.182Z,74.32
2023-03-14T11:35:15.141Z,72.30
2023-03-14T11:36:15.175Z,73.02
2023-03-14T11:37:15.121Z,72.33
2023-03-14T11:38:15.109Z,72.71
2023-03-14T11:39:15.096Z,72.10
2023-03-14T11:40:15.211Z,72.61
2023-03-14T11:41:15.078Z,72.71
2023-03-14T11:42:15.067Z,73.40
2023-03-14T11:44:15.046Z,74.66
2023-03-14T11:45:15.110Z,73.67
2023-03-14T11:47:15.013Z,74.84
2023-03-14T11:48:15.006Z,75.10
2023-03-14T11:49:14.992Z,73.80
2023-03-14T11:50:15.072Z,74.90
2023-03-14T11:51:14.970Z,73.88
2023-03-14T11:52:14.960Z,73.67
2023-03-14T11:53:14.945Z,73.43
2023-03-14T11:54:14.936Z,73.26
2023-03-14T11:55:14.925Z,73.91
2023-03-14T11:56:14.913Z,74.35
2023-03-14T11:58:14.891Z,74.66
2023-03-14T11:59:14.879Z,75.48
2023-03-14T12:00:14.914Z,75.00
2023-03-14T12:09:14.770Z,72.58
2023-03-14T12:10:14.761Z,73.12
2023-03-14T12:11:14.752Z,72.82
2023-03-14T12:12:15.018Z,72.20
2023-03-14T12:13:14.727Z,70.53
2023-03-14T12:14:14.712Z,69.95
2023-03-14T12:15:14.702Z,71.14
2023-03-14T12:16:14.816Z,69.88
2023-03-14T12:17:14.726Z,69.14
2023-03-14T12:18:14.670Z,68.86
2023-03-14T12:19:14.657Z,69.75
2023-03-14T12:20:14.646Z,67.84
2023-03-14T12:21:14.640Z,70.02
2023-03-14T12:26:14.588Z,68.76
2023-03-14T12:27:14.577Z,69.27
2023-03-14T12:29:14.557Z,69.88
2023-03-14T12:30:14.534Z,68.24
2023-03-14T12:31:14.672Z,67.66
2023-03-14T12:32:14.513Z,68.18
2023-03-14T12:33:14.532Z,67.56
2023-03-14T12:34:14.492Z,69.06
2023-03-14T12:35:14.495Z,68.18
2023-03-14T12:36:14.472Z,69.23
2023-03-14T12:37:14.459Z,69.43
2023-03-14T12:38:14.447Z,71.17
2023-03-14T12:39:14.440Z,72.17
2023-03-14T12:40:14.426Z,73.05
2023-03-14T12:41:14.417Z,74.39
2023-03-14T12:42:14.404Z,75.04
2023-03-14T12:43:14.390Z,77.03
2023-03-14T12:44:14.389Z,78.46
2023-03-14T12:45:14.384Z,78.57
2023-03-14T12:46:14.560Z,80.24
2023-03-14T12:47:14.356Z,80.08
2023-03-14T12:48:14.345Z,81.62
2023-03-14T12:49:14.371Z,81.25
2023-03-14T12:50:14.317Z,80.98
2023-03-14T12:51:14.310Z,81.70
2023-03-14T12:54:14.275Z,82.14
2023-03-14T12:55:14.281Z,81.38
2023-03-14T12:56:14.251Z,80.56
2023-03-14T12:57:14.248Z,79.91
2023-03-14T12:58:14.229Z,80.63
2023-03-14T12:59:14.221Z,80.59
2023-03-14T13:00:14.213Z,80.49
2023-03-14T13:01:14.212Z,81.31
2023-03-14T13:03:14.196Z,80.35
2023-03-14T13:04:14.238Z,79.90
2023-03-14T13:05:14.182Z,79.43
2023-03-14T13:06:14.150Z,80.79
2023-03-14T13:07:14.160Z,79.90
2023-03-14T13:08:14.124Z,78.46
2023-03-14T13:09:14.117Z,78.53
2023-03-14T13:10:14.118Z,78.84
2023-03-14T13:11:14.093Z,78.88
2023-03-14T13:12:14.080Z,78.91
2023-03-14T13:14:14.059Z,79.29
2023-03-14T13:15:14.048Z,78.91
2023-03-14T13:16:14.036Z,80.04
2023-03-14T13:17:33.477Z,80.35
2023-03-14T13:18:15.050Z,79.40
2023-03-14T13:19:14.005Z,80.77
2023-03-14T13:20:14.059Z,82.15
2023-03-14T13:21:14.003Z,80.77
2023-03-14T13:22:13.976Z,80.29
2023-03-14T13:23:13.965Z,81.53
2023-03-14T13:29:13.897Z,80.28
2023-03-14T13:30:13.885Z,78.91
2023-03-14T13:31:13.911Z,78.43
2023-03-14T13:32:13.865Z,77.85
2023-03-14T13:33:13.854Z,77.06
2023-03-14T13:34:13.887Z,77.33
2023-03-14T13:35:13.833Z,78.46
2023-03-14T13:36:13.823Z,74.70
2023-03-14T13:37:13.937Z,75.48
2023-03-14T13:38:13.801Z,74.66
2023-03-14T13:40:13.859Z,75.17
2023-03-14T13:41:13.768Z,75.38
2023-03-14T13:45:13.724Z,72.61
2023-03-14T13:46:13.764Z,73.77
2023-03-14T13:47:13.702Z,73.98
2023-03-14T13:48:13.689Z,74.49
2023-03-14T13:49:13.678Z,74.35
2023-03-14T13:50:13.667Z,73.63
2023-03-14T13:51:13.658Z,74.35
2023-03-14T13:52:13.645Z,75.51
2023-03-14T13:53:13.677Z,75.68
2023-03-14T13:55:13.614Z,72.34
2023-03-14T13:56:13.609Z,72.44
2023-03-14T13:58:13.582Z,68.96
2023-03-14T13:59:13.569Z,70.25
2023-03-14T14:02:13.536Z,66.61
2023-03-14T14:03:13.535Z,65.58
2023-03-14T14:04:13.596Z,65.28
2023-03-14T14:05:13.602Z,64.22
2023-03-14T14:06:13.490Z,60.40
2023-03-14T14:07:13.484Z,62.10
2023-03-14T14:08:13.471Z,62.66
2023-03-14T14:09:13.596Z,61.58
2023-03-14T14:10:13.449Z,59.74
2023-03-14T14:13:13.419Z,58.60
2023-03-14T14:14:13.412Z,58.50
2023-03-14T14:17:13.372Z,58.06
2023-03-14T14:18:13.361Z,58.11
2023-03-14T14:19:13.350Z,59.64
2023-03-14T14:20:13.343Z,56.98
2023-03-14T14:21:13.334Z,57.37
2023-03-14T14:22:13.314Z,56.96
2023-03-14T14:23:13.310Z,56.55
2023-03-14T14:24:13.299Z,56.04
2023-03-14T14:25:13.413Z,56.70
2023-03-14T14:26:13.273Z,57.06
2023-03-14T14:27:13.266Z,54.69
2023-03-14T14:37:13.154Z,48.60
2023-03-14T14:38:13.142Z,50.31
2023-03-14T14:39:13.157Z,46.39
2023-03-14T14:40:13.122Z,48.53
2023-03-14T14:41:13.186Z,46.94
2023-03-14T14:44:13.076Z,46.42
2023-03-14T14:47:13.052Z,47.83
2023-03-14T14:50:13.015Z,50.25
2023-03-14T14:51:13.004Z,47.49
2023-03-14T14:52:12.996Z,47.16
2023-03-14T14:53:12.989Z,46.42
2023-03-14T14:57:13.021Z,45.97
2023-03-14T14:58:12.927Z,46.73
2023-03-14T14:59:12.914Z,47.03
2023-03-14T15:00:12.910Z,47.44
2023-03-14T15:01:12.899Z,46.65
2023-03-14T15:02:13.002Z,47.74
2023-03-14T15:03:12.982Z,49.09
2023-03-14T15:04:12.859Z,47.99
2023-03-14T15:05:12.857Z,50.26
2023-03-14T15:06:12.841Z,49.65
2023-03-14T15:07:12.835Z,50.59
2023-03-14T15:08:12.832Z,50.90
2023-03-14T15:09:12.826Z,50.60
2023-03-14T15:10:12.793Z,48.63
2023-03-14T15:11:12.843Z,48.82
2023-03-14T15:12:12.797Z,48.43
2023-03-14T15:13:14.421Z,48.20
2023-03-14T15:14:12.749Z,48.08
2023-03-14T15:15:12.744Z,48.90
2023-03-14T15:16:12.815Z,47.34
2023-03-14T15:17:12.720Z,48.69
2023-03-14T15:18:12.710Z,46.16
2023-03-14T15:19:23.463Z,47.49
2023-03-14T15:20:12.686Z,47.05
2023-03-14T15:21:12.676Z,45.09
2023-03-14T15:22:12.666Z,46.85
2023-03-14T15:24:12.642Z,45.85
2023-03-14T15:25:31.534Z,47.57
2023-03-14T15:26:12.621Z,45.95
2023-03-14T15:27:12.613Z,46.14
2023-03-14T15:28:12.596Z,46.75